createdAt,value
2023-05-25T00:01:16.510Z,25.87
2023-05-25T00:03:28.254Z,25.87
2023-05-25T00:05:37.996Z,25.87
2023-05-25T00:07:47.311Z,25.85
2023-05-25T00:09:56.557Z,25.85
2023-05-25T00:12:06.367Z,25.84
2023-05-25T00:14:15.708Z,25.81
2023-05-25T00:16:24.898Z,25.79
2023-05-25T00:18:38.327Z,25.79
2023-05-25T00:20:48.617Z,25.80
2023-05-25T00:22:57.627Z,25.80
2023-05-25T00:25:08.027Z,25.80
2023-05-25T00:27:17.607Z,25.79
2023-05-25T00:29:27.283Z,25.79
2023-05-25T00:31:37.153Z,25.78
2023-05-25T00:33:46.344Z,25.78
2023-05-25T00:35:57.555Z,25.75
2023-05-25T00:38:06.680Z,25.74
2023-05-25T00:40:18.938Z,25.71
2023-05-25T00:42:28.733Z,25.67
2023-05-25T00:44:37.938Z,25.65
2023-05-25T00:46:49.903Z,25.61
2023-05-25T00:48:59.470Z,25.55
2023-05-25T00:51:09.532Z,25.54
2023-05-25T00:53:19.715Z,25.53
2023-05-25T00:55:31.564Z,25.51
2023-05-25T00:57:42.012Z,25.49
2023-05-25T00:59:56.116Z,25.46
2023-05-25T01:02:09.297Z,25.44
2023-05-25T01:04:20.614Z,25.42
2023-05-25T01:06:32.465Z,25.42
2023-05-25T01:08:41.782Z,25.39
2023-05-25T01:10:53.665Z,25.35
2023-05-25T01:13:04.550Z,25.33
2023-05-25T01:15:15.463Z,25.29
2023-05-25T01:17:24.770Z,25.27
2023-05-25T01:19:37.382Z,25.22
2023-05-25T01:21:53.181Z,25.19
2023-05-25T01:24:12.564Z,25.15
2023-05-25T01:26:25.565Z,25.10
2023-05-25T01:28:40.600Z,25.08
2023-05-25T01:30:51.278Z,25.05
2023-05-25T01:33:01.358Z,25.02
2023-05-25T01:35:13.177Z,25.00
2023-05-25T01:37:26.747Z,24.98
2023-05-25T01:39:36.006Z,24.95
2023-05-25T01:41:45.375Z,24.91
2023-05-25T01:43:55.310Z,24.88
2023-05-25T01:46:14.598Z,24.87
2023-05-25T01:48:32.492Z,24.84
2023-05-25T01:50:53.489Z,24.80
2023-05-25T01:53:08.151Z,24.73
2023-05-25T01:55:20.859Z,24.70
2023-05-25T01:57:31.437Z,24.65
2023-05-25T01:59:44.292Z,24.58
2023-05-25T02:01:55.353Z,24.55
2023-05-25T02:04:05.790Z,24.50
2023-05-25T02:06:15.297Z,24.45
2023-05-25T02:08:24.685Z,24.42
2023-05-25T02:10:34.032Z,24.38
2023-05-25T02:12:43.422Z,24.36
2023-05-25T02:14:52.574Z,24.33
2023-05-25T02:17:02.738Z,24.28
2023-05-25T02:19:12.565Z,24.20
2023-05-25T02:21:21.941Z,24.18
2023-05-25T02:23:35.088Z,24.11
2023-05-25T02:25:44.608Z,24.06
2023-05-25T02:27:54.031Z,24.01
2023-05-25T02:30:03.301Z,23.97
2023-05-25T02:32:12.598Z,23.92
2023-05-25T02:34:22.227Z,23.87
2023-05-25T02:36:32.296Z,23.83
2023-05-25T02:38:41.904Z,23.80
2023-05-25T02:40:53.152Z,23.77
2023-05-25T02:43:02.554Z,23.74
2023-05-25T02:45:14.410Z,23.68
2023-05-25T02:47:23.716Z,23.62
2023-05-25T02:49:34.707Z,23.56
2023-05-25T02:51:44.084Z,23.53
2023-05-25T02:53:53.311Z,23.50
2023-05-25T02:56:02.812Z,23.47
2023-05-25T02:58:14.309Z,23.41
2023-05-25T03:00:34.016Z,23.36
2023-05-25T03:02:43.413Z,23.32
2023-05-25T03:04:54.179Z,23.26
2023-05-25T03:07:03.452Z,23.21
2023-05-25T03:09:13.232Z,23.16
2023-05-25T03:11:22.872Z,23.10
2023-05-25T03:13:32.179Z,23.06
2023-05-25T03:15:41.653Z,23.02
2023-05-25T03:17:51.584Z,22.98
2023-05-25T03:20:01.316Z,22.93
2023-05-25T03:22:10.541Z,22.88
2023-05-25T03:24:20.317Z,22.82
2023-05-25T03:26:31.002Z,22.76
2023-05-25T03:28:40.921Z,22.71
2023-05-25T03:30:50.137Z,22.65
2023-05-25T03:32:59.818Z,22.61
2023-05-25T03:35:13.950Z,22.58
2023-05-25T03:37:23.487Z,22.54
2023-05-25T03:39:32.753Z,22.48
2023-05-25T03:41:43.394Z,22.45
2023-05-25T03:43:52.852Z,22.38
2023-05-25T03:46:02.226Z,22.34
2023-05-25T03:48:11.738Z,22.29
2023-05-25T03:50:21.241Z,22.25
2023-05-25T03:52:30.609Z,22.21
2023-05-25T03:54:40.785Z,22.17
2023-05-25T03:56:50.730Z,22.12
2023-05-25T03:59:00.566Z,22.06
2023-05-25T04:01:10.944Z,22.00
2023-05-25T04:03:21.012Z,21.94
2023-05-25T04:05:30.471Z,21.89
2023-05-25T04:07:41.195Z,21.84
2023-05-25T04:09:50.722Z,21.77
2023-05-25T04:11:59.950Z,21.72
2023-05-25T04:14:09.577Z,21.65
2023-05-25T04:16:22.118Z,21.62
2023-05-25T04:18:31.770Z,21.58
2023-05-25T04:20:42.331Z,21.53
2023-05-25T04:22:54.636Z,21.48
2023-05-25T04:25:05.366Z,21.42
2023-05-25T04:27:15.438Z,21.36
2023-05-25T04:29:27.121Z,21.30
2023-05-25T04:31:49.980Z,21.23
2023-05-25T04:34:17.589Z,21.16
2023-05-25T04:36:45.046Z,21.05
2023-05-25T04:38:58.309Z,20.96
2023-05-25T04:41:07.915Z,20.90
2023-05-25T04:43:20.708Z,20.85
2023-05-25T04:45:30.283Z,20.79
2023-05-25T04:47:41.448Z,20.74
2023-05-25T04:49:50.904Z,20.68
2023-05-25T04:52:00.141Z,20.62
2023-05-25T04:54:11.771Z,20.56
2023-05-25T04:56:22.638Z,20.47
2023-05-25T04:58:31.886Z,20.41
2023-05-25T05:00:42.100Z,20.34
2023-05-25T05:02:52.268Z,20.30
2023-05-25T05:05:02.337Z,20.25
2023-05-25T05:07:11.562Z,20.18
2023-05-25T05:09:21.204Z,20.12
2023-05-25T05:11:31.145Z,20.06
2023-05-25T05:13:40.415Z,19.98
2023-05-25T05:15:50.213Z,19.93
2023-05-25T05:18:01.025Z,19.87
2023-05-25T05:20:12.852Z,19.82
2023-05-25T05:22:22.082Z,19.76
2023-05-25T05:24:32.284Z,19.70
2023-05-25T05:26:56.164Z,19.65
2023-05-25T05:29:20.369Z,19.59
2023-05-25T05:31:29.872Z,19.53
2023-05-25T05:33:39.858Z,19.49
2023-05-25T05:35:49.660Z,19.43
2023-05-25T05:38:03.326Z,19.37
2023-05-25T05:40:13.821Z,19.32
2023-05-25T05:42:24.664Z,19.26
2023-05-25T05:44:33.847Z,19.21
2023-05-25T05:46:43.236Z,19.16
2023-05-25T05:48:52.637Z,19.10
2023-05-25T05:51:01.822Z,19.05
2023-05-25T05:53:11.462Z,19.00
2023-05-25T05:55:21.334Z,18.96
2023-05-25T05:57:32.539Z,18.91
2023-05-25T05:59:43.944Z,18.87
2023-05-25T06:01:53.125Z,18.83
2023-05-25T06:04:02.280Z,18.80
2023-05-25T06:06:11.874Z,18.74
2023-05-25T06:08:21.251Z,18.69
2023-05-25T06:10:30.509Z,18.65
2023-05-25T06:12:41.156Z,18.61
2023-05-25T06:14:52.480Z,18.58
2023-05-25T06:17:03.186Z,18.55
2023-05-25T06:19:12.982Z,18.52
2023-05-25T06:21:22.926Z,18.48
2023-05-25T06:23:32.132Z,18.45
2023-05-25T06:25:41.374Z,18.41
2023-05-25T06:27:50.674Z,18.38
2023-05-25T06:29:59.704Z,18.35
2023-05-25T06:32:11.318Z,18.31
2023-05-25T06:34:21.192Z,18.27
2023-05-25T06:36:32.193Z,18.23
2023-05-25T06:38:41.898Z,18.19
2023-05-25T06:40:51.315Z,18.14
2023-05-25T06:43:00.738Z,18.08
2023-05-25T06:45:30.918Z,18.03
2023-05-25T06:47:41.615Z,17.97
2023-05-25T06:49:51.894Z,17.94
2023-05-25T06:52:01.116Z,17.89
2023-05-25T06:54:10.865Z,17.85
2023-05-25T06:56:20.305Z,17.81
2023-05-25T06:58:29.372Z,17.75
2023-05-25T07:00:38.943Z,17.71
2023-05-25T07:02:48.480Z,17.67
2023-05-25T07:04:58.169Z,17.62
2023-05-25T07:07:07.734Z,17.57
2023-05-25T07:09:17.685Z,17.51
2023-05-25T07:11:28.419Z,17.46
2023-05-25T07:13:37.878Z,17.40
2023-05-25T07:15:47.803Z,17.35
2023-05-25T07:17:57.719Z,17.30
2023-05-25T07:20:07.406Z,17.23
2023-05-25T07:22:17.384Z,17.18
2023-05-25T07:24:26.854Z,17.12
2023-05-25T07:26:36.704Z,17.05
2023-05-25T07:28:46.321Z,17.02
2023-05-25T07:30:56.068Z,16.97
2023-05-25T07:33:05.424Z,16.93
2023-05-25T07:35:14.462Z,16.89
2023-05-25T07:37:23.743Z,16.85
2023-05-25T07:39:33.156Z,16.82
2023-05-25T07:41:42.540Z,16.79
2023-05-25T07:43:52.713Z,16.75
2023-05-25T07:46:02.736Z,16.71
2023-05-25T07:48:12.533Z,16.66
2023-05-25T07:50:22.269Z,16.63
2023-05-25T07:52:31.356Z,16.59
2023-05-25T07:54:40.776Z,16.55
2023-05-25T07:56:50.162Z,16.50
2023-05-25T07:59:00.408Z,16.48
2023-05-25T08:01:09.707Z,16.45
2023-05-25T08:03:22.404Z,16.43
2023-05-25T08:05:37.920Z,16.40
2023-05-25T08:07:47.299Z,16.39
2023-05-25T08:09:56.632Z,16.37
2023-05-25T08:12:27.095Z,16.35
2023-05-25T08:14:35.296Z,16.33
2023-05-25T08:16:44.439Z,16.27
2023-05-25T08:18:53.693Z,16.25
2023-05-25T08:21:02.892Z,16.19
2023-05-25T08:23:12.123Z,16.13
2023-05-25T08:25:21.360Z,16.08
2023-05-25T08:27:31.331Z,16.03
2023-05-25T08:29:41.550Z,15.98
2023-05-25T08:31:51.667Z,15.93
2023-05-25T08:34:00.998Z,15.88
2023-05-25T08:36:10.957Z,15.82
2023-05-25T08:38:20.503Z,15.76
2023-05-25T08:40:31.249Z,15.72
2023-05-25T08:42:43.338Z,15.66
2023-05-25T08:44:53.082Z,15.61
2023-05-25T08:47:07.197Z,15.56
2023-05-25T08:49:17.884Z,15.49
2023-05-25T08:51:27.963Z,15.44
2023-05-25T08:53:39.811Z,15.38
2023-05-25T08:55:52.205Z,15.34
2023-05-25T08:58:08.842Z,15.29
2023-05-25T09:00:23.525Z,15.26
2023-05-25T09:02:37.721Z,15.20
2023-05-25T09:04:47.167Z,15.16
2023-05-25T09:07:09.435Z,15.12
2023-05-25T09:09:20.550Z,15.09
2023-05-25T09:11:38.913Z,15.06
2023-05-25T09:13:49.708Z,15.01
2023-05-25T09:15:59.556Z,14.98
2023-05-25T09:18:09.533Z,14.93
2023-05-25T09:20:22.086Z,14.91
2023-05-25T09:22:31.738Z,14.88
2023-05-25T09:24:42.003Z,14.84
2023-05-25T09:26:51.608Z,14.80
2023-05-25T09:29:00.844Z,14.75
2023-05-25T09:31:10.079Z,14.69
2023-05-25T09:33:20.062Z,14.67
2023-05-25T09:35:30.168Z,14.62
2023-05-25T09:37:39.787Z,14.59
2023-05-25T09:39:49.626Z,14.56
2023-05-25T09:41:58.896Z,14.53
2023-05-25T09:44:11.620Z,14.48
2023-05-25T09:46:21.386Z,14.45
2023-05-25T09:48:30.841Z,14.41
2023-05-25T09:50:40.065Z,14.37
2023-05-25T09:52:49.538Z,14.35
2023-05-25T09:54:59.291Z,14.33
2023-05-25T09:57:09.100Z,14.28
2023-05-25T09:59:18.490Z,14.25
2023-05-25T10:04:28.860Z,14.19
2023-05-25T10:06:40.210Z,14.15
2023-05-25T10:08:50.320Z,14.10
2023-05-25T10:10:59.622Z,14.07
2023-05-25T10:13:11.859Z,14.04
2023-05-25T10:15:23.172Z,14.01
2023-05-25T10:17:32.991Z,13.98
2023-05-25T10:19:48.594Z,13.95
2023-05-25T10:22:05.823Z,13.93
2023-05-25T10:24:28.862Z,13.89
2023-05-25T10:26:42.247Z,13.85
2023-05-25T10:28:55.519Z,13.80
2023-05-25T10:31:05.371Z,13.74
2023-05-25T10:33:14.710Z,13.71
2023-05-25T10:35:25.074Z,13.67
2023-05-25T10:37:35.640Z,13.64
2023-05-25T10:39:46.377Z,13.61
2023-05-25T10:41:56.629Z,13.56
2023-05-25T10:44:06.363Z,13.52
2023-05-25T10:46:15.847Z,13.49
2023-05-25T10:48:25.588Z,13.46
2023-05-25T10:50:38.811Z,13.42
2023-05-25T10:52:48.172Z,13.39
2023-05-25T10:54:59.757Z,13.36
2023-05-25T10:57:22.059Z,13.32
2023-05-25T10:59:31.697Z,13.27
2023-05-25T11:01:53.578Z,13.22
2023-05-25T11:04:16.150Z,13.18
2023-05-25T11:06:23.880Z,13.14
2023-05-25T11:08:52.807Z,13.10
2023-05-25T11:11:02.568Z,13.06
2023-05-25T11:13:40.865Z,13.03
2023-05-25T11:16:09.224Z,12.99
2023-05-25T11:18:20.038Z,12.95
2023-05-25T11:20:31.521Z,12.91
2023-05-25T11:22:40.938Z,12.89
2023-05-25T11:24:51.086Z,12.86
2023-05-25T11:27:02.178Z,12.82
2023-05-25T11:29:18.700Z,12.79
2023-05-25T11:31:36.042Z,12.77
2023-05-25T11:33:48.801Z,12.75
2023-05-25T11:35:59.994Z,12.72
2023-05-25T11:38:12.978Z,12.69
2023-05-25T11:40:23.979Z,12.66
2023-05-25T11:42:33.980Z,12.63
2023-05-25T11:44:43.836Z,12.62
2023-05-25T11:46:53.276Z,12.59
2023-05-25T11:49:03.122Z,12.58
2023-05-25T11:51:13.380Z,12.57
2023-05-25T11:53:22.513Z,12.54
2023-05-25T11:55:32.405Z,12.51
2023-05-25T11:57:41.893Z,12.51
2023-05-25T11:59:55.047Z,12.49
2023-05-25T12:02:05.234Z,12.45
2023-05-25T12:04:15.717Z,12.41
2023-05-25T12:06:42.022Z,12.38
2023-05-25T12:08:51.572Z,12.34
2023-05-25T12:11:01.238Z,12.30
2023-05-25T12:13:11.731Z,12.27
2023-05-25T12:15:23.513Z,12.24
2023-05-25T12:17:33.187Z,12.21
2023-05-25T12:19:42.649Z,12.19
2023-05-25T12:21:52.818Z,12.16
2023-05-25T12:24:03.079Z,12.14
2023-05-25T12:26:16.626Z,12.12
2023-05-25T12:28:25.857Z,12.11
2023-05-25T12:30:35.037Z,12.09
2023-05-25T12:33:02.980Z,12.08
2023-05-25T12:35:13.764Z,12.06
2023-05-25T12:37:23.785Z,12.05
2023-05-25T12:39:40.211Z,12.04
2023-05-25T12:41:54.221Z,12.01
2023-05-25T12:44:04.213Z,11.99
2023-05-25T12:46:13.663Z,11.99
2023-05-25T12:48:29.735Z,11.99
2023-05-25T12:50:39.729Z,11.98
2023-05-25T12:52:50.187Z,11.96
2023-05-25T12:54:59.427Z,11.94
2023-05-25T12:57:09.713Z,11.94
2023-05-25T12:59:22.040Z,11.94
2023-05-25T13:01:31.893Z,11.95
2023-05-25T13:03:41.660Z,11.95
2023-05-25T13:05:52.178Z,11.96
2023-05-25T13:08:02.170Z,11.97
2023-05-25T13:10:13.829Z,11.98
2023-05-25T13:12:23.122Z,12.00
2023-05-25T13:14:33.562Z,12.03
2023-05-25T13:16:43.815Z,12.05
2023-05-25T13:18:53.984Z,12.08
2023-05-25T13:21:03.343Z,12.08
2023-05-25T13:23:13.391Z,12.10
2023-05-25T13:25:23.623Z,12.11
2023-05-25T13:27:33.010Z,12.13
2023-05-25T13:29:42.184Z,12.15
2023-05-25T13:31:51.589Z,12.15
2023-05-25T13:34:00.641Z,12.17
2023-05-25T13:36:10.594Z,12.19
2023-05-25T13:38:20.064Z,12.22
2023-05-25T13:40:29.580Z,12.25
2023-05-25T13:42:39.001Z,12.29
2023-05-25T13:44:48.281Z,12.33
2023-05-25T13:46:58.403Z,12.37
2023-05-25T13:49:07.686Z,12.41
2023-05-25T13:51:17.762Z,12.44
2023-05-25T13:53:28.115Z,12.44
2023-05-25T13:55:38.687Z,12.45
2023-05-25T13:57:48.221Z,12.47
2023-05-25T13:59:57.646Z,12.51
2023-05-25T14:02:07.203Z,12.51
2023-05-25T14:04:16.577Z,12.55
2023-05-25T14:06:26.168Z,12.59
2023-05-25T14:08:35.321Z,12.64
2023-05-25T14:10:44.829Z,12.66
2023-05-25T14:12:54.293Z,12.67
2023-05-25T14:15:03.552Z,12.68
2023-05-25T14:17:13.467Z,12.68
2023-05-25T14:19:23.915Z,12.72
2023-05-25T14:21:33.457Z,12.77
2023-05-25T14:23:43.620Z,12.83
2023-05-25T14:25:53.837Z,12.88
2023-05-25T14:28:03.318Z,12.94
2023-05-25T14:30:14.579Z,13.00
2023-05-25T14:32:24.436Z,13.06
2023-05-25T14:34:33.729Z,13.12
2023-05-25T14:36:42.829Z,13.17
2023-05-25T14:38:52.303Z,13.21
2023-05-25T14:41:01.805Z,13.26
2023-05-25T14:43:11.240Z,13.32
2023-05-25T14:45:20.974Z,13.36
2023-05-25T14:47:30.849Z,13.43
2023-05-25T14:49:40.148Z,13.50
2023-05-25T14:51:49.272Z,13.55
2023-05-25T14:54:00.764Z,13.61
2023-05-25T14:56:11.284Z,13.68
2023-05-25T14:58:20.830Z,13.76
2023-05-25T15:00:31.355Z,13.83
2023-05-25T15:02:40.561Z,13.92
2023-05-25T15:04:49.955Z,14.01
2023-05-25T15:06:59.385Z,14.09
2023-05-25T15:09:08.463Z,14.17
2023-05-25T15:11:18.419Z,14.26
2023-05-25T15:13:27.976Z,14.33
2023-05-25T15:15:37.069Z,14.38
2023-05-25T15:17:46.362Z,14.46
2023-05-25T15:19:55.649Z,14.57
2023-05-25T15:22:05.203Z,14.67
2023-05-25T15:24:17.420Z,14.78
2023-05-25T15:26:26.862Z,14.89
2023-05-25T15:28:36.303Z,14.98
2023-05-25T15:30:45.497Z,15.10
2023-05-25T15:32:54.761Z,15.20
2023-05-25T15:35:03.901Z,15.29
2023-05-25T15:37:13.489Z,15.39
2023-05-25T15:39:22.935Z,15.46
2023-05-25T15:41:32.126Z,15.55
2023-05-25T15:43:41.433Z,15.64
2023-05-25T15:45:50.892Z,15.71
2023-05-25T15:48:00.303Z,15.84
2023-05-25T15:50:10.808Z,15.95
2023-05-25T15:52:19.942Z,15.98
2023-05-25T15:54:29.923Z,16.02
2023-05-25T15:56:39.462Z,16.09
2023-05-25T15:58:49.698Z,16.14
2023-05-25T16:00:58.922Z,16.25
2023-05-25T16:03:08.165Z,16.33
2023-05-25T16:05:17.284Z,16.49
2023-05-25T16:07:27.175Z,16.64
2023-05-25T16:09:36.479Z,16.78
2023-05-25T16:11:45.680Z,16.93
2023-05-25T16:13:54.937Z,17.07
2023-05-25T16:16:04.174Z,17.16
2023-05-25T16:18:13.582Z,17.23
2023-05-25T16:20:23.077Z,17.34
2023-05-25T16:22:32.856Z,17.46
2023-05-25T16:24:42.715Z,17.58
2023-05-25T16:26:51.867Z,17.65
2023-05-25T16:29:01.267Z,17.72
2023-05-25T16:31:11.377Z,17.81
2023-05-25T16:33:21.002Z,17.86
2023-05-25T16:35:31.816Z,17.94
2023-05-25T16:37:41.066Z,18.04
2023-05-25T16:39:50.247Z,18.11
2023-05-25T16:41:59.653Z,18.18
2023-05-25T16:44:08.968Z,18.31
2023-05-25T16:46:18.428Z,18.43
2023-05-25T16:48:28.829Z,18.52
2023-05-25T16:50:38.013Z,18.69
2023-05-25T16:52:47.710Z,18.85
2023-05-25T16:54:59.443Z,18.93
2023-05-25T16:57:11.574Z,19.01
2023-05-25T16:59:20.972Z,19.12
2023-05-25T17:01:30.361Z,19.26
2023-05-25T17:03:39.844Z,19.41
2023-05-25T17:05:49.171Z,19.53
2023-05-25T17:07:58.670Z,19.63
2023-05-25T17:10:08.862Z,19.74
2023-05-25T17:12:18.626Z,19.86
2023-05-25T17:14:28.078Z,20.00
2023-05-25T17:16:37.313Z,20.14
2023-05-25T17:18:46.791Z,20.27
2023-05-25T17:20:56.638Z,20.42
2023-05-25T17:23:05.749Z,20.54
2023-05-25T17:25:15.662Z,20.65
2023-05-25T17:27:25.284Z,20.76
2023-05-25T17:29:34.399Z,20.79
2023-05-25T17:31:44.316Z,20.82
2023-05-25T17:33:55.127Z,20.89
2023-05-25T17:36:04.645Z,20.95
2023-05-25T17:38:13.791Z,21.02
2023-05-25T17:40:22.997Z,21.08
2023-05-25T17:42:32.300Z,21.19
2023-05-25T17:44:42.776Z,21.24
2023-05-25T17:46:52.251Z,21.27
2023-05-25T17:49:01.412Z,21.31
2023-05-25T17:51:10.482Z,21.32
2023-05-25T17:53:19.688Z,21.34
2023-05-25T17:55:29.595Z,21.37
2023-05-25T17:57:38.629Z,21.47
2023-05-25T17:59:47.789Z,21.55
2023-05-25T18:01:57.469Z,21.62
2023-05-25T18:04:06.869Z,21.71
2023-05-25T18:06:16.196Z,21.84
2023-05-25T18:08:25.571Z,22.00
2023-05-25T18:10:35.086Z,22.12
2023-05-25T18:12:46.566Z,22.21
2023-05-25T18:14:53.734Z,22.31
2023-05-25T18:17:02.971Z,22.47
2023-05-25T18:19:12.543Z,22.62
2023-05-25T18:21:21.677Z,22.69
2023-05-25T18:23:31.725Z,22.82
2023-05-25T18:25:41.706Z,22.98
2023-05-25T18:27:50.724Z,23.16
2023-05-25T18:30:00.295Z,23.28
2023-05-25T18:32:09.838Z,23.33
2023-05-25T18:34:19.072Z,23.32
2023-05-25T18:36:28.431Z,23.35
2023-05-25T18:38:37.742Z,23.38
2023-05-25T18:40:46.977Z,23.41
2023-05-25T18:42:56.262Z,23.48
2023-05-25T18:45:06.300Z,23.53
2023-05-25T18:47:15.872Z,23.59
2023-05-25T18:49:25.369Z,23.61
2023-05-25T18:51:34.695Z,23.67
2023-05-25T18:53:45.063Z,23.78
2023-05-25T18:55:54.959Z,23.92
2023-05-25T18:58:04.303Z,24.06
2023-05-25T19:00:15.831Z,24.15
2023-05-25T19:02:23.640Z,24.23
2023-05-25T19:04:33.074Z,24.27
2023-05-25T19:06:42.512Z,24.24
2023-05-25T19:08:52.331Z,24.24
2023-05-25T19:11:01.863Z,24.24
2023-05-25T19:13:11.568Z,24.24
2023-05-25T19:15:20.959Z,24.33
2023-05-25T19:17:30.308Z,24.46
2023-05-25T19:19:39.498Z,24.55
2023-05-25T19:21:48.673Z,24.63
2023-05-25T19:23:58.391Z,24.69
2023-05-25T19:26:08.085Z,24.80
2023-05-25T19:28:17.202Z,24.88
2023-05-25T19:30:29.568Z,24.97
2023-05-25T19:32:39.031Z,25.07
2023-05-25T19:34:48.143Z,25.16
2023-05-25T19:37:10.294Z,25.32
2023-05-25T19:39:20.517Z,25.50
2023-05-25T19:41:29.953Z,25.69
2023-05-25T19:43:39.244Z,25.82
2023-05-25T19:45:48.661Z,25.88
2023-05-25T19:47:58.619Z,25.98
2023-05-25T19:50:09.301Z,26.10
2023-05-25T19:52:20.356Z,26.24
2023-05-25T19:54:30.075Z,26.38
2023-05-25T19:56:39.715Z,26.49
2023-05-25T19:58:48.896Z,26.58
2023-05-25T20:00:58.439Z,26.67
2023-05-25T20:03:07.663Z,26.76
2023-05-25T20:05:19.016Z,26.81
2023-05-25T20:07:29.132Z,26.87
2023-05-25T20:09:39.372Z,26.97
2023-05-25T20:11:49.310Z,27.02
2023-05-25T20:13:59.090Z,27.04
2023-05-25T20:16:10.629Z,27.05
2023-05-25T20:18:20.380Z,27.03
2023-05-25T20:20:30.271Z,27.06
2023-05-25T20:22:39.782Z,27.12
2023-05-25T20:24:50.267Z,27.16
2023-05-25T20:27:00.417Z,27.27
2023-05-25T20:29:09.732Z,27.37
2023-05-25T20:31:20.469Z,27.46
2023-05-25T20:33:29.770Z,27.51
2023-05-25T20:35:40.014Z,27.57
2023-05-25T20:37:49.192Z,27.62
2023-05-25T20:39:58.653Z,27.64
2023-05-25T20:42:08.363Z,27.66
2023-05-25T20:44:17.496Z,27.70
2023-05-25T20:46:27.567Z,27.76
2023-05-25T20:48:37.717Z,27.83
2023-05-25T20:50:47.779Z,27.89
2023-05-25T20:52:56.764Z,27.89
2023-05-25T20:55:06.973Z,27.91
2023-05-25T20:57:16.890Z,27.97
2023-05-25T20:59:26.288Z,28.04
2023-05-25T21:01:35.798Z,28.12
2023-05-25T21:03:45.171Z,28.21
2023-05-25T21:05:54.373Z,28.27
2023-05-25T21:08:04.461Z,28.30
2023-05-25T21:10:15.031Z,28.30
2023-05-25T21:12:24.338Z,28.35
2023-05-25T21:39:26.211Z,29.41
2023-05-25T21:41:36.367Z,29.49
2023-05-25T21:43:45.853Z,29.56
2023-05-25T21:45:55.185Z,29.62
2023-05-25T21:48:09.311Z,29.69
2023-05-25T21:50:18.997Z,29.77
2023-05-25T21:52:28.203Z,29.81
2023-05-25T21:54:37.442Z,29.84
2023-05-25T21:56:58.305Z,29.89
2023-05-25T21:59:08.422Z,29.94
2023-05-25T22:01:18.230Z,29.97
2023-05-25T22:03:28.132Z,30.00
2023-05-25T22:05:37.788Z,30.04
2023-05-25T22:07:48.284Z,30.08
2023-05-25T22:09:57.497Z,30.07
2023-05-25T22:12:08.210Z,30.08
2023-05-25T22:14:18.115Z,30.13
2023-05-25T22:16:27.930Z,30.16
2023-05-25T22:18:38.667Z,30.15
2023-05-25T22:20:48.131Z,30.17
2023-05-25T22:22:57.603Z,30.19
2023-05-25T22:25:12.161Z,30.19
2023-05-25T22:27:24.602Z,30.19
2023-05-25T22:29:52.108Z,30.19
2023-05-25T22:32:01.850Z,30.19
2023-05-25T22:34:21.530Z,30.24
2023-05-25T22:36:31.311Z,30.29
2023-05-25T22:38:58.261Z,30.36
2023-05-25T22:41:07.975Z,30.38
2023-05-25T22:43:17.889Z,30.39
2023-05-25T22:45:27.531Z,30.37
2023-05-25T22:47:37.022Z,30.36
2023-05-25T22:49:49.829Z,30.37
2023-05-25T22:51:59.758Z,30.39
2023-05-25T22:54:09.778Z,30.38
2023-05-25T22:56:19.542Z,30.34
2023-05-25T22:58:29.256Z,30.33
2023-05-25T23:00:38.652Z,30.30
2023-05-25T23:02:48.521Z,30.29
2023-05-25T23:04:57.977Z,30.30
2023-05-25T23:07:28.311Z,30.30
2023-05-25T23:09:38.178Z,30.30
2023-05-25T23:11:48.128Z,30.32
2023-05-25T23:13:58.594Z,30.35
2023-05-25T23:16:09.060Z,30.33
2023-05-25T23:18:21.541Z,30.34
2023-05-25T23:20:31.658Z,30.35
2023-05-25T23:22:45.201Z,30.32
2023-05-25T23:24:54.452Z,30.28
2023-05-25T23:27:03.837Z,30.29
2023-05-25T23:29:13.380Z,30.28
2023-05-25T23:31:23.453Z,30.26
2023-05-25T23:33:32.931Z,30.27
2023-05-25T23:35:42.377Z,30.31
2023-05-25T23:37:52.317Z,30.34
2023-05-25T23:40:02.150Z,30.38
2023-05-25T23:42:15.816Z,30.39
2023-05-25T23:44:35.607Z,30.43
2023-05-25T23:46:45.047Z,30.48
2023-05-25T23:48:57.531Z,30.50
2023-05-25T23:51:07.887Z,30.52
2023-05-25T23:53:17.661Z,30.54
2023-05-25T23:55:27.137Z,30.56
2023-05-25T23:57:37.472Z,30.58
2023-05-25T23:59:47.219Z,30.60
